South Hanover, Pennsylvania
Current Conditions -  °F | °C
As of 7:56 PM on Saturday 22 Nov 2014 (Local Time) from KMDT Reporting Station
Broken Clouds Broken Clouds  
Wind Chill: 32°   Ceiling: 25000
Heat Index: 32°   Visibility: 10mi
Dew Point: 21°   Wind: 3mph
Humidity: 64%   Direction: 100°E
Pressure: 30.24"   Gusts: NA
Location:  40.2988°N, 76.709°W
Report Text: KMDT 230056Z 10003KT 10SM FEW070 SCT090 BKN250 00/M06 A3024 RMK AO2 SLP244 T00001061
Loading
Personal Weather Stations






























Interactive Weather Map New forecast layout! Learn more

10-Day Weather Forecast

Advertisements
Track Severe Weather on mobile